Time;durP1;ratioP1;P1;durP2;ratioP2;P2;SDS_P1;SDS_P2;PMS_P1;PMS_P2;Temp;Humidity;BMP_temperature;BMP_pressure;BME280_temperature;BME280_humidity;BME280_pressure;Samples;Min_cycle;Max_cycle;Signal;HPM_P1;HPM_P2
2021/03/02 00:01:46;;;;;;;26.35;17.48;;;2.70;1.00;;;;;;6226367;23;20185;-79
2021/03/02 00:04:14;;;;;;;26.90;17.33;;;2.60;1.00;;;;;;6224454;23;20200;-79
2021/03/02 00:06:40;;;;;;;28.98;19.77;;;2.50;1.00;;;;;;6226867;23;20194;-76
2021/03/02 00:09:07;;;;;;;22.95;15.40;;;2.50;1.00;;;;;;6229548;23;20185;-79
2021/03/02 00:11:36;;;;;;;29.20;18.92;;;2.50;1.00;;;;;;6223122;23;20216;-79
2021/03/02 00:14:03;;;;;;;29.17;16.98;;;2.40;1.00;;;;;;6236058;23;20181;-79
2021/03/02 00:16:32;;;;;;;25.73;17.42;;;2.40;1.00;;;;;;6232936;22;20202;-79
2021/03/02 00:19:05;;;;;;;25.27;16.25;;;2.40;1.00;;;;;;6225132;23;20971;-80
2021/03/02 00:21:36;;;;;;;26.00;18.65;;;2.30;1.00;;;;;;6227250;23;20218;-80
2021/03/02 00:24:04;;;;;;;32.92;18.80;;;2.30;1.00;;;;;;6224386;23;20604;-79
2021/03/02 00:26:33;;;;;;;26.95;18.05;;;2.20;1.00;;;;;;6196363;23;20198;-77
2021/03/02 00:29:03;;;;;;;27.77;17.45;;;2.20;1.00;;;;;;6223719;23;20197;-79
2021/03/02 00:31:31;;;;;;;29.48;17.50;;;2.20;1.00;;;;;;6222766;23;20201;-80
2021/03/02 00:33:58;;;;;;;28.38;17.55;;;2.20;1.00;;;;;;6224625;23;20192;-80
2021/03/02 00:36:24;;;;;;;23.50;16.35;;;2.10;1.00;;;;;;6227295;23;20858;-78
2021/03/02 00:38:51;;;;;;;21.92;15.15;;;2.00;1.00;;;;;;6227142;23;20291;-80
2021/03/02 00:41:17;;;;;;;26.05;19.25;;;2.10;1.00;;;;;;6196919;23;20182;-80
2021/03/02 00:43:44;;;;;;;26.48;17.63;;;2.00;1.00;;;;;;6229308;23;20189;-79
2021/03/02 00:46:11;;;;;;;24.40;16.65;;;1.90;1.00;;;;;;6223041;23;20193;-79
2021/03/02 00:48:37;;;;;;;25.83;16.55;;;2.00;1.00;;;;;;6222735;23;20193;-78
2021/03/02 00:51:04;;;;;;;23.00;16.00;;;2.00;1.00;;;;;;6221702;23;20280;-77
2021/03/02 00:53:31;;;;;;;28.30;18.15;;;1.90;1.00;;;;;;6224298;23;20190;-79
2021/03/02 00:55:58;;;;;;;26.75;16.92;;;1.90;1.00;;;;;;6221748;23;20836;-79
2021/03/02 00:58:24;;;;;;;24.25;16.60;;;1.80;1.00;;;;;;6223906;23;20213;-79
2021/03/02 01:00:51;;;;;;;26.13;17.05;;;1.80;1.00;;;;;;6222595;23;20655;-79
2021/03/02 01:03:17;;;;;;;28.60;17.83;;;1.80;1.00;;;;;;6223780;23;21107;-76
2021/03/02 01:05:43;;;;;;;27.05;17.85;;;1.70;1.00;;;;;;6220823;23;20663;-77
2021/03/02 01:08:09;;;;;;;22.85;17.08;;;1.70;1.00;;;;;;6223774;23;20214;-77
2021/03/02 01:10:36;;;;;;;24.85;17.00;;;1.70;1.00;;;;;;6224209;23;20205;-77
2021/03/02 01:13:03;;;;;;;24.30;16.42;;;1.60;1.00;;;;;;6224149;23;20262;-77
2021/03/02 01:15:29;;;;;;;23.35;16.00;;;1.60;1.00;;;;;;6219882;23;20198;-78
2021/03/02 01:17:55;;;;;;;27.75;16.40;;;1.60;1.00;;;;;;6192044;23;20288;-79
2021/03/02 01:20:22;;;;;;;26.05;16.58;;;1.60;1.00;;;;;;6220649;23;20269;-79
2021/03/02 01:22:48;;;;;;;27.02;17.73;;;1.50;1.00;;;;;;6195962;23;20194;-79
2021/03/02 01:25:15;;;;;;;29.67;17.38;;;1.60;1.00;;;;;;6222833;23;20248;-78
2021/03/02 01:27:41;;;;;;;24.65;16.75;;;1.60;1.00;;;;;;6222013;23;20190;-77
2021/03/02 01:30:11;;;;;;;27.63;18.20;;;1.50;1.00;;;;;;6219842;23;20248;-79
2021/03/02 01:32:38;;;;;;;26.05;16.65;;;1.50;1.00;;;;;;6219462;23;20228;-79
2021/03/02 01:35:06;;;;;;;24.58;15.80;;;1.40;1.00;;;;;;6224517;23;20817;-77
2021/03/02 01:37:32;;;;;;;26.70;17.02;;;1.40;1.00;;;;;;6195819;23;20189;-78
2021/03/02 01:39:58;;;;;;;26.88;17.90;;;1.40;1.00;;;;;;6222852;23;20201;-80
2021/03/02 01:42:25;;;;;;;23.42;17.85;;;1.40;1.00;;;;;;6221559;23;20221;-79
2021/03/02 01:44:51;;;;;;;27.10;16.50;;;1.40;1.00;;;;;;6203394;23;20221;-78
2021/03/02 01:47:18;;;;;;;27.85;18.38;;;1.30;1.00;;;;;;6221301;22;20942;-78
2021/03/02 01:49:44;;;;;;;28.50;19.52;;;1.20;1.00;;;;;;6241021;23;20185;-76
2021/03/02 01:52:11;;;;;;;31.52;21.30;;;1.20;1.00;;;;;;6222712;22;20197;-79
2021/03/02 01:54:37;;;;;;;27.48;19.25;;;1.20;1.00;;;;;;6189974;23;20292;-79
2021/03/02 01:57:04;;;;;;;33.25;21.65;;;1.20;1.00;;;;;;6221414;22;20201;-80
2021/03/02 01:59:31;;;;;;;31.83;23.35;;;1.20;1.00;;;;;;6200372;23;20182;-76
2021/03/02 02:02:00;;;;;;;37.30;24.45;;;1.30;1.00;;;;;;6227421;23;20190;-78
2021/03/02 02:04:34;;;;;;;35.35;24.50;;;1.20;1.00;;;;;;6226051;23;20772;-79
2021/03/02 02:07:04;;;;;;;33.92;24.23;;;1.20;1.00;;;;;;6223605;22;20207;-80
2021/03/02 02:09:37;;;;;;;35.55;23.70;;;1.20;1.00;;;;;;6193391;23;20189;-79
2021/03/02 02:12:07;;;;;;;37.05;26.50;;;1.20;1.00;;;;;;6222219;23;21084;-79
2021/03/02 02:14:41;;;;;;;42.35;26.27;;;1.20;1.00;;;;;;6222824;23;20182;-78
2021/03/02 02:17:16;;;;;;;40.80;26.75;;;1.10;1.00;;;;;;6220836;23;20196;-79
2021/03/02 02:19:47;;;;;;;32.80;22.67;;;1.10;1.00;;;;;;6194310;23;20280;-79
2021/03/02 02:22:31;;;;;;;34.53;23.33;;;1.10;1.00;;;;;;6223005;23;20220;-79
2021/03/02 02:25:15;;;;;;;39.38;24.33;;;1.00;1.00;;;;;;6222353;23;20177;-79
2021/03/02 02:27:44;;;;;;;31.70;20.95;;;1.00;1.00;;;;;;6195186;23;20224;-78
2021/03/02 02:30:11;;;;;;;29.02;18.58;;;1.00;1.00;;;;;;6219116;23;20225;-78
2021/03/02 02:32:39;;;;;;;31.42;19.98;;;1.00;1.00;;;;;;6215878;23;20220;-77
2021/03/02 02:35:07;;;;;;;30.15;18.90;;;1.00;1.00;;;;;;6218326;23;20193;-76
2021/03/02 02:37:34;;;;;;;24.77;20.15;;;0.90;1.00;;;;;;6191006;23;20213;-77
2021/03/02 02:40:02;;;;;;;31.63;18.58;;;0.90;1.00;;;;;;6190444;23;20929;-78
2021/03/02 02:42:32;;;;;;;25.88;18.52;;;0.80;1.00;;;;;;6188818;23;20273;-78
2021/03/02 02:45:00;;;;;;;27.52;21.00;;;0.80;1.00;;;;;;6220981;23;20189;-79
2021/03/02 02:47:28;;;;;;;32.65;21.80;;;0.80;1.00;;;;;;6217779;23;20588;-79
2021/03/02 02:49:55;;;;;;;41.22;25.27;;;0.80;1.00;;;;;;6195182;23;20186;-79
2021/03/02 02:52:22;;;;;;;33.22;24.67;;;0.80;1.00;;;;;;6195251;23;20274;-78
2021/03/02 02:54:50;;;;;;;37.95;25.58;;;0.70;1.00;;;;;;6226167;23;20193;-78
2021/03/02 02:57:18;;;;;;;44.00;28.42;;;0.70;1.00;;;;;;6231077;23;20197;-74
2021/03/02 02:59:47;;;;;;;36.67;26.80;;;0.70;1.00;;;;;;6238935;23;20274;-77
2021/03/02 03:02:19;;;;;;;40.58;28.67;;;0.70;1.00;;;;;;6233099;23;20194;-78
2021/03/02 03:04:50;;;;;;;43.67;29.13;;;0.70;1.00;;;;;;6204146;23;20193;-79
2021/03/02 03:07:22;;;;;;;41.00;29.50;;;0.70;1.00;;;;;;6231364;23;20194;-80
2021/03/02 03:09:50;;;;;;;34.75;25.75;;;0.70;1.00;;;;;;6224290;23;20197;-78
2021/03/02 03:12:16;;;;;;;42.17;30.83;;;0.70;1.00;;;;;;6221473;23;21019;-78
2021/03/02 03:14:47;;;;;;;39.15;29.13;;;0.70;1.00;;;;;;6221661;23;20189;-80
2021/03/02 03:17:18;;;;;;;39.10;28.42;;;0.70;1.00;;;;;;6224497;22;20213;-80
2021/03/02 03:19:46;;;;;;;42.70;28.80;;;0.70;1.00;;;;;;6224185;23;21324;-75
2021/03/02 03:22:13;;;;;;;42.60;29.50;;;0.70;1.00;;;;;;6226526;23;20280;-77
2021/03/02 03:24:40;;;;;;;35.47;27.20;;;0.60;1.00;;;;;;6231498;23;20237;-78
2021/03/02 03:27:07;;;;;;;40.80;28.70;;;0.60;1.00;;;;;;6228661;23;20201;-78
2021/03/02 03:29:35;;;;;;;36.67;26.48;;;0.60;1.00;;;;;;6226603;23;20251;-78
2021/03/02 03:32:03;;;;;;;37.92;28.67;;;0.60;1.00;;;;;;6238293;23;20205;-77
2021/03/02 03:34:31;;;;;;;37.88;27.02;;;0.70;1.00;;;;;;6234715;23;20194;-79
2021/03/02 03:36:57;;;;;;;38.67;23.75;;;0.60;1.00;;;;;;6222263;23;21090;-78
2021/03/02 03:39:23;;;;;;;36.05;25.50;;;0.60;1.00;;;;;;6195425;23;20198;-79
2021/03/02 03:41:50;;;;;;;32.58;23.63;;;0.50;1.00;;;;;;6224295;23;20264;-75
2021/03/02 03:44:16;;;;;;;37.97;26.45;;;0.50;1.00;;;;;;6222911;23;20201;-77
2021/03/02 03:46:43;;;;;;;36.70;24.30;;;0.50;1.00;;;;;;6223169;23;20228;-78
2021/03/02 03:49:09;;;;;;;38.10;25.23;;;0.50;1.00;;;;;;6196657;23;20260;-77
2021/03/02 03:51:39;;;;;;;39.25;26.65;;;0.50;1.00;;;;;;6222534;23;20205;-78
2021/03/02 03:54:06;;;;;;;34.72;24.60;;;0.50;1.00;;;;;;6197236;23;20248;-78
2021/03/02 03:56:34;;;;;;;36.25;26.23;;;0.50;1.00;;;;;;6224173;23;20197;-79
2021/03/02 03:59:02;;;;;;;35.78;25.10;;;0.50;1.00;;;;;;6226132;23;20197;-78
2021/03/02 04:01:29;;;;;;;38.78;26.80;;;0.40;1.00;;;;;;6194944;23;20220;-80
2021/03/02 04:03:57;;;;;;;41.55;28.98;;;0.40;1.00;;;;;;6224962;23;20709;-77
2021/03/02 04:06:23;;;;;;;38.42;26.30;;;0.40;1.00;;;;;;6225012;23;20217;-79
2021/03/02 04:08:53;;;;;;;36.80;27.13;;;0.40;1.00;;;;;;6226369;23;20186;-80
2021/03/02 04:11:20;;;;;;;37.28;27.80;;;0.40;1.00;;;;;;6200657;23;20202;-76
2021/03/02 04:13:46;;;;;;;39.97;26.88;;;0.40;1.00;;;;;;6224599;23;20722;-80
2021/03/02 04:16:13;;;;;;;39.47;27.38;;;0.40;1.00;;;;;;6224871;23;20194;-79
2021/03/02 04:18:39;;;;;;;40.15;27.40;;;0.40;1.00;;;;;;6197990;23;20276;-79
2021/03/02 04:21:05;;;;;;;42.67;28.95;;;0.40;1.00;;;;;;6225122;23;20694;-77
2021/03/02 04:23:32;;;;;;;34.70;26.17;;;0.50;1.00;;;;;;6198078;23;21054;-80
2021/03/02 04:25:59;;;;;;;39.40;27.25;;;0.40;1.00;;;;;;6227166;22;20205;-76
2021/03/02 04:28:25;;;;;;;37.75;27.92;;;0.40;1.00;;;;;;6227718;23;20182;-79
2021/03/02 04:30:51;;;;;;;46.33;30.20;;;0.40;1.00;;;;;;6229485;23;20217;-79
2021/03/02 04:33:18;;;;;;;38.28;29.15;;;0.30;1.00;;;;;;6197028;23;20197;-78
2021/03/02 04:35:44;;;;;;;36.70;26.20;;;0.30;1.00;;;;;;6226364;23;20233;-79
2021/03/02 04:38:11;;;;;;;37.97;26.88;;;0.40;1.00;;;;;;6229561;23;20193;-79
2021/03/02 04:40:37;;;;;;;42.22;27.42;;;0.40;1.00;;;;;;6228420;23;20202;-78
2021/03/02 04:43:04;;;;;;;41.00;29.08;;;0.40;1.00;;;;;;6205980;23;20190;-79
2021/03/02 04:45:31;;;;;;;45.13;30.13;;;0.40;1.00;;;;;;6229110;22;20197;-79
2021/03/02 04:47:57;;;;;;;37.78;27.83;;;0.40;1.00;;;;;;6204807;23;20189;-78
2021/03/02 04:50:24;;;;;;;42.38;29.48;;;0.40;1.00;;;;;;6199990;23;20194;-78
2021/03/02 04:52:50;;;;;;;43.33;29.00;;;0.40;1.00;;;;;;6225264;23;20194;-78
2021/03/02 04:55:17;;;;;;;41.53;28.38;;;0.30;1.00;;;;;;6199351;22;20225;-80
2021/03/02 04:57:43;;;;;;;40.72;29.38;;;0.40;1.00;;;;;;6229564;23;20217;-80
2021/03/02 05:00:12;;;;;;;43.97;29.92;;;0.30;1.00;;;;;;6231324;23;20244;-81
2021/03/02 05:02:39;;;;;;;43.30;28.48;;;0.30;1.00;;;;;;6225647;23;20404;-81
2021/03/02 05:05:07;;;;;;;35.45;26.45;;;0.20;1.00;;;;;;6227243;23;20185;-77
2021/03/02 05:07:33;;;;;;;39.55;27.13;;;0.20;1.00;;;;;;6227626;23;20200;-78
2021/03/02 05:10:00;;;;;;;40.88;28.25;;;0.20;1.00;;;;;;6228977;23;20193;-79
2021/03/02 05:12:26;;;;;;;44.45;27.77;;;0.20;1.00;;;;;;6202092;23;20259;-79
2021/03/02 05:14:53;;;;;;;39.13;28.95;;;0.20;1.00;;;;;;6212961;23;20302;-77
2021/03/02 05:17:20;;;;;;;44.53;28.80;;;0.20;1.00;;;;;;6241879;23;20186;-79
2021/03/02 05:19:47;;;;;;;38.35;26.88;;;0.20;1.00;;;;;;6242604;22;20284;-80
2021/03/02 05:22:13;;;;;;;35.80;26.30;;;0.20;1.00;;;;;;6245286;23;20197;-81
2021/03/02 05:24:40;;;;;;;36.05;26.52;;;0.20;1.00;;;;;;6215807;22;20197;-81
2021/03/02 05:27:06;;;;;;;38.72;28.05;;;0.20;1.00;;;;;;6245612;22;20202;-79
2021/03/02 05:29:32;;;;;;;42.95;27.48;;;0.20;1.00;;;;;;6244579;22;20177;-80
2021/03/02 05:31:59;;;;;;;37.40;25.42;;;0.20;1.00;;;;;;6240906;22;20232;-81
2021/03/02 05:34:26;;;;;;;38.72;26.95;;;0.20;1.00;;;;;;6217409;22;20206;-81
2021/03/02 05:36:52;;;;;;;38.45;30.27;;;0.20;1.00;;;;;;6243332;22;20186;-80
2021/03/02 05:39:19;;;;;;;42.08;24.40;;;0.20;1.00;;;;;;6217306;22;20214;-79
2021/03/02 05:41:45;;;;;;;34.13;21.80;;;0.30;1.00;;;;;;6244616;22;20192;-80
2021/03/02 05:44:12;;;;;;;42.42;26.85;;;0.30;1.00;;;;;;6244258;22;20201;-80
2021/03/02 05:46:40;;;;;;;39.88;24.73;;;0.20;1.00;;;;;;6244087;22;20177;-81
2021/03/02 05:49:09;;;;;;;37.30;24.83;;;0.20;1.00;;;;;;6217707;23;20239;-80
2021/03/02 05:51:38;;;;;;;37.10;23.88;;;0.20;1.00;;;;;;6243312;22;20260;-80
2021/03/02 05:54:05;;;;;;;40.58;26.50;;;0.20;1.00;;;;;;6242844;22;20189;-80
2021/03/02 05:56:32;;;;;;;38.40;26.02;;;0.10;1.00;;;;;;6242329;22;20208;-78
2021/03/02 05:58:59;;;;;;;38.42;24.08;;;0.10;1.00;;;;;;6235781;22;20193;-76
2021/03/02 06:01:26;;;;;;;32.45;20.90;;;0.20;1.00;;;;;;6241304;22;20224;-77
2021/03/02 06:03:52;;;;;;;43.47;24.30;;;0.20;1.00;;;;;;6206839;23;20193;-76
2021/03/02 06:06:19;;;;;;;38.45;23.40;;;0.20;1.00;;;;;;6240994;22;20204;-76
2021/03/02 06:08:46;;;;;;;35.90;23.75;;;0.20;1.00;;;;;;6213336;23;20189;-78
2021/03/02 06:11:27;;;;;;;43.85;26.60;;;0.20;1.00;;;;;;6237525;23;20260;-77
2021/03/02 06:13:54;;;;;;;36.17;23.90;;;0.20;1.00;;;;;;6237880;23;20192;-78
2021/03/02 06:16:20;;;;;;;36.60;23.63;;;0.20;1.00;;;;;;6212499;23;20204;-77
2021/03/02 06:18:48;;;;;;;47.10;30.13;;;0.20;1.00;;;;;;6241142;22;20182;-76
2021/03/02 06:21:14;;;;;;;36.70;24.27;;;0.20;1.00;;;;;;6230471;23;20224;-75
2021/03/02 06:23:49;;;;;;;43.78;25.52;;;0.30;1.00;;;;;;6220601;23;20268;-77
2021/03/02 06:26:24;;;;;;;31.75;21.55;;;0.30;1.00;;;;;;6217980;23;20233;-75
2021/03/02 06:28:51;;;;;;;39.00;24.52;;;0.30;1.00;;;;;;6219552;23;20180;-78
2021/03/02 06:31:36;;;;;;;37.05;24.45;;;0.40;1.00;;;;;;6222156;23;20216;-76
2021/03/02 06:34:11;;;;;;;38.65;24.55;;;0.40;1.00;;;;;;6198588;23;20376;-77
2021/03/02 06:36:38;;;;;;;42.65;25.00;;;0.40;1.00;;;;;;6200153;23;20208;-80
2021/03/02 06:39:22;;;;;;;34.55;24.60;;;0.50;1.00;;;;;;6231949;23;20200;-79
2021/03/02 06:41:50;;;;;;;37.83;25.80;;;0.60;1.00;;;;;;6226096;23;21014;-79
2021/03/02 06:44:17;;;;;;;43.72;25.13;;;0.50;1.00;;;;;;6201269;23;20236;-80
2021/03/02 06:46:44;;;;;;;39.55;25.58;;;0.60;1.00;;;;;;6224387;23;20700;-76
2021/03/02 06:49:10;;;;;;;34.85;23.98;;;0.60;1.00;;;;;;6221536;23;20190;-77
2021/03/02 06:51:38;;;;;;;45.85;26.85;;;0.70;1.00;;;;;;6222670;23;20209;-77
2021/03/02 06:54:06;;;;;;;38.47;23.50;;;0.80;1.00;;;;;;6225455;23;20225;-78
2021/03/02 06:56:34;;;;;;;39.40;25.15;;;0.80;1.00;;;;;;6237811;23;20216;-77
2021/03/02 06:59:14;;;;;;;37.80;23.38;;;0.90;1.00;;;;;;6230749;23;20193;-77
2021/03/02 07:01:44;;;;;;;39.05;25.42;;;0.90;1.00;;;;;;6229614;23;20204;-79
2021/03/02 07:04:12;;;;;;;37.67;24.77;;;1.00;1.00;;;;;;6228615;23;21067;-79
2021/03/02 07:06:40;;;;;;;40.50;26.35;;;1.10;1.00;;;;;;6204153;23;20209;-79
2021/03/02 07:09:07;;;;;;;39.58;25.75;;;1.20;1.00;;;;;;6228382;23;20200;-76
2021/03/02 07:11:36;;;;;;;43.58;29.20;;;1.30;1.00;;;;;;6222320;23;20376;-78
2021/03/02 07:14:04;;;;;;;35.42;24.75;;;1.40;1.00;;;;;;6224270;23;20201;-79
2021/03/02 07:16:30;;;;;;;33.88;23.23;;;1.50;1.00;;;;;;6197756;23;20248;-77
2021/03/02 07:18:59;;;;;;;36.03;24.38;;;1.60;1.00;;;;;;6220547;23;20200;-76
2021/03/02 07:21:27;;;;;;;31.30;21.33;;;1.60;1.00;;;;;;6221556;23;20234;-79
2021/03/02 07:23:55;;;;;;;31.65;21.60;;;1.70;1.00;;;;;;6220142;23;20209;-78
2021/03/02 07:26:23;;;;;;;32.10;22.23;;;1.80;1.00;;;;;;6221710;23;20344;-77
2021/03/02 07:28:50;;;;;;;31.83;23.13;;;1.80;1.00;;;;;;6227394;23;20491;-77
2021/03/02 07:31:17;;;;;;;60.72;28.00;;;1.90;1.00;;;;;;6225080;23;20670;-74
2021/03/02 07:33:46;;;;;;;33.72;22.00;;;2.00;1.00;;;;;;6220284;23;20211;-76
2021/03/02 07:36:13;;;;;;;38.40;23.35;;;2.00;1.00;;;;;;6190263;23;20602;-77
2021/03/02 07:38:39;;;;;;;31.77;22.45;;;2.00;1.00;;;;;;6193004;23;20200;-78
2021/03/02 07:41:06;;;;;;;36.65;22.40;;;2.00;1.00;;;;;;6221241;23;20186;-78
2021/03/02 07:43:35;;;;;;;41.58;27.90;;;2.10;1.00;;;;;;6196130;23;20974;-79
2021/03/02 07:46:41;;;;;;;37.33;23.98;;;2.20;1.00;;;;;;6197318;23;20193;-81
2021/03/02 07:49:43;;;;;;;33.25;23.63;;;2.30;1.00;;;;;;6195271;23;20197;-78
2021/03/02 07:52:22;;;;;;;34.75;20.88;;;2.40;1.00;;;;;;6214806;23;20216;-80
2021/03/02 07:55:16;;;;;;;32.70;22.67;;;2.50;1.00;;;;;;6225126;23;20185;-82
2021/03/02 07:57:42;;;;;;;34.55;22.92;;;2.60;1.00;;;;;;6225829;23;20198;-79
2021/03/02 08:00:23;;;;;;;34.50;21.65;;;2.70;1.00;;;;;;6220933;23;20268;-79
2021/03/02 08:03:30;;;;;;;29.30;20.33;;;2.70;1.00;;;;;;6219695;23;21617;-80
2021/03/02 08:06:01;;;;;;;33.45;21.73;;;2.90;1.00;;;;;;6226905;23;20201;-81
2021/03/02 08:08:39;;;;;;;31.08;21.60;;;2.90;1.00;;;;;;6222153;23;20189;-80
2021/03/02 08:11:28;;;;;;;37.00;22.67;;;3.00;1.00;;;;;;6228857;23;20204;-78
2021/03/02 08:13:54;;;;;;;41.08;26.77;;;3.20;1.00;;;;;;6200055;23;20444;-82
2021/03/02 08:16:52;;;;;;;34.35;24.77;;;3.40;1.00;;;;;;6226002;23;20248;-78
2021/03/02 08:19:38;;;;;;;36.30;24.40;;;3.60;1.00;;;;;;6226217;23;21200;-81
2021/03/02 08:22:38;;;;;;;29.67;21.98;;;3.70;1.00;;;;;;6202082;23;20185;-78
2021/03/02 08:25:10;;;;;;;33.13;21.83;;;3.80;1.00;;;;;;6230914;23;20736;-78
2021/03/02 08:27:38;;;;;;;35.05;24.70;;;3.80;1.00;;;;;;6207177;23;20447;-77
2021/03/02 08:30:07;;;;;;;36.45;25.23;;;4.00;1.00;;;;;;6197938;23;21042;-78
2021/03/02 08:32:33;;;;;;;36.22;22.27;;;4.10;1.00;;;;;;6222126;23;20268;-78
2021/03/02 08:35:03;;;;;;;34.08;22.50;;;4.20;1.00;;;;;;6224810;23;20278;-77
2021/03/02 08:37:40;;;;;;;32.10;22.80;;;4.30;1.00;;;;;;6236772;23;20270;-76
2021/03/02 08:40:09;;;;;;;32.33;21.80;;;4.40;1.00;;;;;;6237001;23;20558;-78
2021/03/02 08:42:35;;;;;;;38.42;23.98;;;4.40;1.00;;;;;;6227929;23;20273;-76
2021/03/02 08:45:05;;;;;;;35.67;22.80;;;4.50;1.00;;;;;;6231806;23;20190;-76
2021/03/02 08:47:31;;;;;;;38.55;25.30;;;4.50;1.00;;;;;;6208904;23;20376;-77
2021/03/02 08:49:58;;;;;;;39.75;22.88;;;4.60;1.00;;;;;;6224240;23;20237;-77
2021/03/02 08:52:36;;;;;;;30.52;21.85;;;4.90;1.00;;;;;;6229143;23;20333;-76
2021/03/02 08:55:03;;;;;;;33.40;21.13;;;5.40;1.00;;;;;;6228652;23;20225;-76
2021/03/02 08:57:30;;;;;;;36.58;22.13;;;6.00;1.00;;;;;;6226435;22;20260;-77
2021/03/02 08:59:56;;;;;;;34.33;21.77;;;6.80;1.00;;;;;;6226275;23;20205;-76
2021/03/02 09:02:22;;;;;;;27.92;19.55;;;7.70;1.00;;;;;;6197972;23;20190;-78
2021/03/02 09:04:49;;;;;;;35.03;21.55;;;8.70;1.00;;;;;;6206527;23;20202;-77
2021/03/02 09:07:22;;;;;;;30.77;20.85;;;9.60;1.00;;;;;;6228881;23;20190;-77
2021/03/02 09:09:48;;;;;;;24.30;19.83;;;10.40;1.00;;;;;;6228743;23;20264;-78
2021/03/02 09:12:14;;;;;;;23.77;20.03;;;11.50;1.00;;;;;;6224616;23;20455;-77
2021/03/02 09:14:41;;;;;;;28.53;18.63;;;12.80;1.00;;;;;;6226462;23;20397;-76
2021/03/02 09:17:08;;;;;;;27.10;18.50;;;13.70;1.00;;;;;;6224507;23;20425;-76
2021/03/02 09:19:35;;;;;;;26.60;18.57;;;14.30;1.00;;;;;;6225358;23;20405;-76
2021/03/02 09:22:03;;;;;;;27.67;21.30;;;14.90;1.00;;;;;;6224266;23;20484;-76
2021/03/02 09:24:32;;;;;;;24.37;19.20;;;15.50;1.00;;;;;;6223545;23;21147;-76
2021/03/02 09:27:00;;;;;;;29.90;20.60;;;15.90;1.00;;;;;;6223242;23;20666;-77
2021/03/02 09:29:28;;;;;;;23.70;19.00;;;16.30;1.00;;;;;;6224452;23;20446;-76
2021/03/02 09:31:57;;;;;;;25.20;19.60;;;16.50;1.00;;;;;;6225668;23;20431;-75
2021/03/02 09:34:34;;;;;;;23.03;18.43;;;15.90;1.00;;;;;;6224668;23;20363;-77
2021/03/02 09:37:05;;;;;;;23.70;19.40;;;15.80;1.00;;;;;;6223242;23;20394;-78
2021/03/02 09:39:32;;;;;;;26.63;20.93;;;15.60;1.00;;;;;;6224540;23;21198;-76
2021/03/02 09:41:58;;;;;;;42.83;22.80;;;15.60;1.00;;;;;;6222541;23;20367;-73
2021/03/02 09:44:28;;;;;;;26.97;21.30;;;16.30;1.00;;;;;;6225136;23;20847;-76
2021/03/02 09:46:57;;;;;;;29.20;21.27;;;16.60;1.00;;;;;;6222114;22;20434;-75
2021/03/02 09:49:39;;;;;;;29.60;22.23;;;16.90;1.00;;;;;;6222950;23;20875;-75
2021/03/02 09:52:07;;;;;;;34.60;22.97;;;17.00;1.00;;;;;;6194894;23;20394;-76
2021/03/02 09:54:34;;;;;;;37.80;24.13;;;17.50;1.00;;;;;;6196608;23;20452;-76
2021/03/02 09:57:02;;;;;;;42.10;25.10;;;17.70;1.00;;;;;;6227212;23;20409;-75
2021/03/02 09:59:29;;;;;;;30.80;22.83;;;17.40;1.00;;;;;;6238560;23;20414;-76
2021/03/02 10:01:57;;;;;;;31.60;23.07;;;17.50;1.00;;;;;;6241456;23;20418;-76
2021/03/02 10:04:24;;;;;;;33.80;23.73;;;17.80;1.00;;;;;;6240423;23;20366;-76
2021/03/02 10:06:50;;;;;;;37.47;25.17;;;18.00;1.00;;;;;;6242380;22;20403;-75
2021/03/02 10:09:21;;;;;;;41.73;30.13;;;17.80;1.00;;;;;;6241584;23;20957;-75
2021/03/02 10:11:49;;;;;;;32.07;24.73;;;17.60;1.00;;;;;;6239255;23;20423;-77
2021/03/02 10:14:15;;;;;;;45.13;26.67;;;16.90;1.00;;;;;;6240714;23;20384;-77
2021/03/02 10:16:42;;;;;;;33.70;26.10;;;16.50;1.00;;;;;;6224170;22;20426;-75
2021/03/02 10:19:17;;;;;;;35.00;26.07;;;16.50;1.00;;;;;;6199046;23;20364;-76
2021/03/02 10:21:47;;;;;;;36.07;25.53;;;16.90;1.00;;;;;;6227979;23;20423;-77
2021/03/02 10:24:18;;;;;;;33.43;25.70;;;16.90;1.00;;;;;;6222481;23;20462;-75
2021/03/02 10:26:45;;;;;;;34.73;28.33;;;17.00;1.00;;;;;;6223043;22;20410;-75
2021/03/02 10:29:12;;;;;;;41.78;28.92;;;16.50;1.00;;;;;;6218091;23;20404;-77
2021/03/02 10:31:39;;;;;;;41.53;29.23;;;16.10;1.00;;;;;;6220587;23;20281;-74
2021/03/02 10:34:06;;;;;;;38.37;28.87;;;16.40;1.00;;;;;;6194671;23;21232;-77
2021/03/02 10:36:35;;;;;;;43.53;30.30;;;16.60;1.00;;;;;;6219288;23;20454;-75
2021/03/02 10:39:04;;;;;;;47.63;28.47;;;17.30;1.00;;;;;;6234729;22;20393;-76
2021/03/02 10:41:30;;;;;;;42.87;31.17;;;18.40;1.00;;;;;;6219615;23;20420;-74
2021/03/02 10:43:56;;;;;;;40.37;29.87;;;18.70;1.00;;;;;;6220599;23;20440;-76
2021/03/02 10:46:24;;;;;;;46.03;29.67;;;18.60;1.00;;;;;;6221883;23;20389;-75
2021/03/02 10:48:51;;;;;;;35.95;29.23;;;18.30;1.00;;;;;;6216892;23;20380;-75
2021/03/02 10:51:18;;;;;;;36.87;29.33;;;18.60;1.00;;;;;;6217076;23;20933;-77
2021/03/02 10:53:45;;;;;;;35.20;29.48;;;19.10;1.00;;;;;;6218133;23;20388;-76
2021/03/02 10:56:12;;;;;;;44.40;30.80;;;19.50;1.00;;;;;;6221101;22;20264;-77
2021/03/02 10:58:38;;;;;;;39.10;29.40;;;19.60;1.00;;;;;;6224391;23;20415;-77
2021/03/02 11:01:05;;;;;;;35.92;29.20;;;19.20;1.00;;;;;;6219527;23;20844;-76
2021/03/02 11:03:31;;;;;;;38.23;28.47;;;19.60;1.00;;;;;;6219956;23;20294;-77
2021/03/02 11:05:58;;;;;;;34.20;28.00;;;20.00;1.00;;;;;;6217761;23;20909;-73
2021/03/02 11:08:25;;;;;;;40.63;29.53;;;19.80;1.00;;;;;;6221888;23;20403;-73
2021/03/02 11:10:52;;;;;;;39.03;27.90;;;20.10;1.00;;;;;;6218155;23;20468;-74
2021/03/02 11:13:19;;;;;;;33.50;27.50;;;20.40;1.00;;;;;;6220416;23;20392;-76
2021/03/02 11:15:46;;;;;;;39.37;27.93;;;20.70;1.00;;;;;;6219278;23;20390;-76
2021/03/02 11:18:13;;;;;;;33.40;27.20;;;20.70;1.00;;;;;;6216094;23;20399;-76
2021/03/02 11:20:42;;;;;;;36.47;26.93;;;20.90;1.00;;;;;;6215539;23;20899;-74
2021/03/02 11:23:09;;;;;;;38.85;29.38;;;21.00;1.00;;;;;;6217023;23;20361;-76
2021/03/02 11:25:35;;;;;;;43.95;31.40;;;21.10;1.00;;;;;;6217156;23;20387;-75
2021/03/02 11:28:02;;;;;;;35.73;27.67;;;21.70;1.00;;;;;;6218189;23;20196;-74
2021/03/02 11:30:28;;;;;;;33.27;27.73;;;22.10;1.00;;;;;;6216982;23;20412;-73
2021/03/02 11:32:56;;;;;;;34.37;27.00;;;22.40;1.00;;;;;;6217810;23;21125;-75
2021/03/02 11:35:22;;;;;;;32.63;27.13;;;23.00;1.00;;;;;;6219641;22;20389;-75
2021/03/02 11:37:48;;;;;;;36.47;28.35;;;23.60;1.00;;;;;;6216693;23;20975;-76
2021/03/02 11:40:16;;;;;;;32.40;27.90;;;24.30;1.00;;;;;;6217943;23;20280;-75
2021/03/02 11:42:43;;;;;;;31.57;26.57;;;24.60;1.00;;;;;;6219330;23;20488;-76
2021/03/02 11:45:12;;;;;;;35.90;27.40;;;24.60;1.00;;;;;;6218095;23;20751;-75
2021/03/02 11:47:39;;;;;;;42.90;30.90;;;24.60;1.00;;;;;;6216388;23;21073;-76
2021/03/02 11:50:07;;;;;;;36.87;28.87;;;25.40;1.00;;;;;;6218905;23;20959;-76
2021/03/02 11:52:34;;;;;;;35.53;28.03;;;26.30;1.00;;;;;;6218844;23;20403;-76
2021/03/02 11:55:00;;;;;;;35.07;27.60;;;26.40;1.00;;;;;;6220627;23;20399;-77
2021/03/02 11:57:26;;;;;;;32.03;28.20;;;26.90;1.00;;;;;;6218479;22;20480;-75
2021/03/02 11:59:53;;;;;;;33.07;27.67;;;26.60;1.00;;;;;;6221711;23;20193;-76
2021/03/02 12:02:20;;;;;;;32.30;28.15;;;25.90;1.00;;;;;;6220675;23;20349;-76
2021/03/02 12:04:46;;;;;;;31.97;27.07;;;26.40;1.00;;;;;;6221757;23;20192;-77
2021/03/02 12:07:12;;;;;;;31.53;27.03;;;26.20;1.00;;;;;;6218773;23;20425;-76
2021/03/02 12:09:39;;;;;;;32.20;28.70;;;26.40;1.00;;;;;;6221712;23;20453;-78
2021/03/02 12:12:07;;;;;;;34.88;30.60;;;26.80;1.00;;;;;;6221606;23;20364;-77
2021/03/02 12:14:33;;;;;;;39.13;28.70;;;26.60;1.00;;;;;;6226197;23;20183;-77
2021/03/02 12:17:00;;;;;;;34.38;29.10;;;26.50;1.00;;;;;;6220555;22;20392;-75
2021/03/02 12:19:27;;;;;;;35.13;27.20;;;26.50;1.00;;;;;;6221303;23;20215;-77
2021/03/02 12:21:53;;;;;;;35.50;26.23;;;26.80;1.00;;;;;;6222234;23;20407;-78
2021/03/02 12:24:20;;;;;;;34.90;27.30;;;27.40;1.00;;;;;;6221354;23;20506;-77
2021/03/02 12:26:46;;;;;;;33.13;26.70;;;28.10;1.00;;;;;;6222346;23;21185;-77
2021/03/02 12:29:13;;;;;;;37.73;28.30;;;28.00;1.00;;;;;;6224468;23;20509;-75
2021/03/02 12:31:40;;;;;;;31.40;27.37;;;27.60;1.00;;;;;;6227964;23;20410;-79
2021/03/02 12:34:07;;;;;;;37.27;28.13;;;27.80;1.00;;;;;;6222971;23;21070;-77
2021/03/02 12:36:34;;;;;;;36.43;26.87;;;28.00;1.00;;;;;;6221791;22;20425;-75
2021/03/02 12:39:00;;;;;;;29.83;26.63;;;27.70;1.00;;;;;;6220574;23;20492;-77
2021/03/02 12:41:26;;;;;;;39.73;28.20;;;27.90;1.00;;;;;;6221164;23;20400;-75
2021/03/02 12:43:53;;;;;;;34.23;28.10;;;27.60;1.00;;;;;;6220353;23;20545;-74
2021/03/02 12:46:19;;;;;;;36.78;29.45;;;25.80;1.00;;;;;;6221003;22;20416;-78
2021/03/02 12:48:45;;;;;;;30.43;26.37;;;25.20;1.00;;;;;;6223806;23;20240;-76
2021/03/02 12:51:11;;;;;;;34.20;25.37;;;25.90;1.00;;;;;;6221693;23;20428;-77